Time;durP1;ratioP1;P1;durP2;ratioP2;P2;SDS_P1;SDS_P2;PMS_P1;PMS_P2;Temp;Humidity;BMP_temperature;BMP_pressure;BME280_temperature;BME280_humidity;BME280_pressure;Samples;Min_cycle;Max_cycle;Signal;HPM_P1;HPM_P2
2023/06/22 00:01:27;;;;;;;4.68;3.40;;;;;25.40;101812.00;;;;5068487;28;20586;-83
2023/06/22 00:03:54;;;;;;;3.80;2.67;;;;;25.40;101821.00;;;;5071485;28;20202;-84
2023/06/22 00:06:22;;;;;;;3.17;2.30;;;;;25.40;101822.00;;;;5088113;28;20194;-84
2023/06/22 00:08:49;;;;;;;4.45;3.10;;;;;25.30;101819.00;;;;5088393;28;20259;-84
2023/06/22 00:11:16;;;;;;;4.00;2.58;;;;;25.30;101819.00;;;;5089726;28;20222;-84
2023/06/22 00:13:44;;;;;;;3.42;2.88;;;;;25.30;101813.00;;;;5089373;28;20201;-83
2023/06/22 00:16:11;;;;;;;4.07;3.17;;;;;25.30;101808.00;;;;5084642;28;20649;-83
2023/06/22 00:18:46;;;;;;;3.72;3.30;;;;;25.30;101803.00;;;;5085826;28;20193;-83
2023/06/22 00:21:14;;;;;;;4.70;2.80;;;;;25.30;101806.00;;;;5089679;28;20618;-84
2023/06/22 00:23:41;;;;;;;3.70;3.28;;;;;25.30;101803.00;;;;5088042;28;20199;-84
2023/06/22 00:26:08;;;;;;;4.68;3.58;;;;;25.30;101797.00;;;;5086992;28;20206;-84
2023/06/22 00:28:36;;;;;;;7.70;4.10;;;;;25.30;101796.00;;;;5087946;28;20198;-84
2023/06/22 00:31:03;;;;;;;3.50;3.15;;;;;25.30;101797.00;;;;5089151;28;20679;-84
2023/06/22 00:33:31;;;;;;;4.47;3.58;;;;;25.30;101797.00;;;;5082517;28;20246;-84
2023/06/22 00:35:59;;;;;;;5.28;4.13;;;;;25.30;101797.00;;;;5080687;28;20209;-83
2023/06/22 00:38:27;;;;;;;4.65;3.70;;;;;25.30;101802.00;;;;5088145;28;20201;-83
2023/06/22 00:40:54;;;;;;;3.90;3.50;;;;;25.20;101796.00;;;;5088978;28;20222;-84
2023/06/22 00:43:21;;;;;;;5.38;4.32;;;;;25.20;101799.00;;;;5089208;28;20206;-83
2023/06/22 00:45:49;;;;;;;4.65;3.90;;;;;25.20;101794.00;;;;5087678;28;20555;-83
2023/06/22 00:48:17;;;;;;;5.47;4.13;;;;;25.20;101789.00;;;;5088620;28;20206;-84
2023/06/22 00:50:44;;;;;;;5.60;4.28;;;;;25.20;101786.00;;;;5079738;28;20195;-84
2023/06/22 00:53:13;;;;;;;4.63;3.75;;;;;25.20;101787.00;;;;5068841;28;20206;-83
2023/06/22 00:55:45;;;;;;;5.70;3.65;;;;;25.20;101785.00;;;;5076000;28;20198;-84
2023/06/22 00:58:13;;;;;;;4.45;4.00;;;;;25.20;101787.00;;;;5086677;28;20194;-84
2023/06/22 01:00:41;;;;;;;4.07;3.65;;;;;25.20;101781.00;;;;5088745;28;20217;-84
2023/06/22 01:03:09;;;;;;;7.88;3.95;;;;;25.20;101786.00;;;;5089309;28;20406;-84
2023/06/22 01:05:38;;;;;;;4.25;3.50;;;;;25.10;101790.00;;;;5087904;28;20248;-84
2023/06/22 01:08:12;;;;;;;3.70;3.28;;;;;25.10;101794.00;;;;5087892;28;20203;-84
2023/06/22 01:10:46;;;;;;;4.70;3.72;;;;;25.10;101790.00;;;;5086058;28;20197;-83
2023/06/22 01:13:30;;;;;;;4.53;3.83;;;;;25.00;101789.00;;;;5077230;28;20229;-84
2023/06/22 01:16:03;;;;;;;3.92;3.50;;;;;25.10;101794.00;;;;5084941;28;20302;-84
2023/06/22 01:18:33;;;;;;;6.70;4.50;;;;;25.10;101788.00;;;;5086992;28;20581;-83
2023/06/22 01:21:02;;;;;;;4.25;3.53;;;;;25.10;101784.00;;;;5087207;28;20901;-83
2023/06/22 01:23:37;;;;;;;6.95;3.80;;;;;25.00;101785.00;;;;5088175;28;20247;-83
2023/06/22 01:26:15;;;;;;;4.57;4.13;;;;;25.00;101781.00;;;;5084491;28;20196;-84
2023/06/22 01:28:47;;;;;;;5.95;3.85;;;;;25.00;101776.00;;;;5087188;28;20568;-84
2023/06/22 01:31:17;;;;;;;5.43;4.13;;;;;25.00;101778.00;;;;5087013;28;20685;-84
2023/06/22 01:33:49;;;;;;;5.57;4.47;;;;;25.00;101784.00;;;;5087805;28;20285;-84
2023/06/22 01:36:18;;;;;;;6.53;4.40;;;;;25.00;101776.00;;;;5087462;28;20585;-84
2023/06/22 01:38:47;;;;;;;5.03;4.35;;;;;25.00;101779.00;;;;5086000;28;20194;-84
2023/06/22 01:41:15;;;;;;;5.95;4.30;;;;;24.90;101776.00;;;;5084998;28;20221;-84
2023/06/22 01:43:44;;;;;;;5.50;4.63;;;;;24.90;101775.00;;;;5087269;28;20209;-83
2023/06/22 01:46:12;;;;;;;5.55;4.18;;;;;24.90;101773.00;;;;5087590;28;20202;-84
2023/06/22 01:48:40;;;;;;;5.63;3.95;;;;;24.90;101777.00;;;;5087665;28;20202;-84
2023/06/22 01:51:08;;;;;;;6.68;4.05;;;;;24.90;101770.00;;;;5086070;28;20202;-84
2023/06/22 01:53:35;;;;;;;5.20;4.05;;;;;24.90;101769.00;;;;5087694;28;20191;-84
2023/06/22 01:56:02;;;;;;;5.68;3.58;;;;;24.90;101772.00;;;;5084676;28;20209;-83
2023/06/22 01:58:32;;;;;;;4.43;3.58;;;;;24.90;101771.00;;;;5078598;28;20195;-83
2023/06/22 02:01:12;;;;;;;3.92;3.53;;;;;24.80;101775.00;;;;5086614;28;20222;-83
2023/06/22 02:03:45;;;;;;;4.88;3.50;;;;;24.80;101774.00;;;;5087200;28;20198;-83
2023/06/22 02:06:20;;;;;;;4.63;3.53;;;;;24.80;101767.00;;;;5086871;28;20603;-84
2023/06/22 02:08:50;;;;;;;6.53;4.00;;;;;24.80;101766.00;;;;5086441;28;20205;-83
2023/06/22 02:11:21;;;;;;;4.97;3.72;;;;;24.80;101765.00;;;;5082744;28;20756;-83
2023/06/22 02:13:49;;;;;;;5.05;4.35;;;;;24.80;101771.00;;;;5085783;28;20545;-84
2023/06/22 02:16:18;;;;;;;5.25;4.40;;;;;24.80;101770.00;;;;5084711;28;20213;-84
2023/06/22 02:18:50;;;;;;;5.43;4.00;;;;;24.70;101768.00;;;;5084952;28;20210;-83
2023/06/22 02:21:18;;;;;;;6.05;4.20;;;;;24.80;101766.00;;;;5071541;28;20222;-83
2023/06/22 02:23:45;;;;;;;6.57;4.15;;;;;24.70;101765.00;;;;5086642;28;20206;-84
2023/06/22 02:26:14;;;;;;;4.10;3.70;;;;;24.70;101764.00;;;;5076969;28;20203;-84
2023/06/22 02:28:41;;;;;;;4.72;4.30;;;;;24.70;101768.00;;;;5086266;28;20670;-83
2023/06/22 02:31:08;;;;;;;5.85;4.45;;;;;24.70;101770.00;;;;5088124;28;20198;-83
2023/06/22 02:33:37;;;;;;;5.63;4.53;;;;;24.60;101766.00;;;;5086840;28;20229;-84
2023/06/22 02:36:07;;;;;;;4.97;3.90;;;;;24.60;101760.00;;;;5087360;28;20577;-84
2023/06/22 02:38:34;;;;;;;5.55;4.55;;;;;24.60;101763.00;;;;5086499;28;20201;-84
2023/06/22 02:41:01;;;;;;;6.70;5.13;;;;;24.60;101761.00;;;;5085010;28;20230;-84
2023/06/22 02:43:29;;;;;;;7.30;4.57;;;;;24.60;101758.00;;;;5090832;28;20198;-83
2023/06/22 02:45:57;;;;;;;5.40;3.90;;;;;24.50;101752.00;;;;5090818;28;20198;-83
2023/06/22 02:48:24;;;;;;;4.53;4.00;;;;;24.50;101754.00;;;;5090887;28;20198;-84
2023/06/22 02:50:53;;;;;;;8.52;4.57;;;;;24.50;101751.00;;;;5073238;28;20210;-84
2023/06/22 02:53:20;;;;;;;5.72;4.60;;;;;24.50;101749.00;;;;5073641;28;20191;-83
2023/06/22 02:55:48;;;;;;;8.25;4.97;;;;;24.40;101757.00;;;;5089501;28;20190;-84
2023/06/22 02:58:16;;;;;;;7.93;5.07;;;;;24.40;101750.00;;;;5090706;28;20201;-84
2023/06/22 03:00:43;;;;;;;6.55;5.07;;;;;24.40;101755.00;;;;5091362;28;20222;-84
2023/06/22 03:03:11;;;;;;;5.30;4.57;;;;;24.40;101751.00;;;;5090127;28;20194;-84
2023/06/22 03:05:40;;;;;;;7.25;4.97;;;;;24.30;101757.00;;;;5089451;28;20198;-84
2023/06/22 03:08:08;;;;;;;5.53;4.05;;;;;24.30;101754.00;;;;5089379;28;20289;-84
2023/06/22 03:10:37;;;;;;;5.13;4.63;;;;;24.30;101754.00;;;;5091274;28;20644;-83
2023/06/22 03:13:04;;;;;;;5.53;4.75;;;;;24.30;101756.00;;;;5089381;28;20193;-84
2023/06/22 03:15:33;;;;;;;6.28;4.82;;;;;24.30;101746.00;;;;5082415;28;20579;-84
2023/06/22 03:18:00;;;;;;;7.40;4.82;;;;;24.20;101752.00;;;;5090874;28;20198;-83
2023/06/22 03:20:33;;;;;;;5.50;4.50;;;;;24.20;101752.00;;;;5089083;28;20226;-84
2023/06/22 03:23:00;;;;;;;5.90;4.05;;;;;24.20;101751.00;;;;5084758;28;20256;-83
2023/06/22 03:25:29;;;;;;;7.25;5.70;;;;;24.20;101739.00;;;;5089426;28;20283;-84
2023/06/22 03:27:56;;;;;;;6.00;4.60;;;;;24.20;101725.00;;;;5090562;28;20201;-84
2023/06/22 03:30:24;;;;;;;6.70;5.03;;;;;24.10;101731.00;;;;5090758;28;20747;-85
2023/06/22 03:32:51;;;;;;;6.60;4.60;;;;;24.10;101727.00;;;;5090611;28;20238;-83
2023/06/22 03:35:19;;;;;;;5.20;4.45;;;;;24.10;101721.00;;;;5088374;28;20190;-83
2023/06/22 03:37:47;;;;;;;5.57;4.45;;;;;24.10;101728.00;;;;5088002;28;20198;-84
2023/06/22 03:40:14;;;;;;;5.68;4.43;;;;;24.00;101729.00;;;;5079620;28;20313;-84
2023/06/22 03:42:43;;;;;;;4.82;4.35;;;;;24.00;101721.00;;;;5087620;28;20206;-84
2023/06/22 03:45:11;;;;;;;6.70;4.90;;;;;24.00;101720.00;;;;5087541;28;20735;-83
2023/06/22 03:47:39;;;;;;;5.22;4.18;;;;;24.00;101713.00;;;;5089265;28;20194;-84
2023/06/22 03:50:07;;;;;;;6.50;4.32;;;;;24.00;101716.00;;;;5089220;28;20198;-84
2023/06/22 03:52:34;;;;;;;5.40;4.07;;;;;24.00;101714.00;;;;5090660;28;20190;-84
2023/06/22 03:55:02;;;;;;;6.38;4.88;;;;;23.90;101726.00;;;;5089471;28;20206;-84
2023/06/22 03:57:29;;;;;;;6.60;5.00;;;;;23.90;101720.00;;;;5083197;28;20199;-84
2023/06/22 03:59:59;;;;;;;7.43;4.95;;;;;23.90;101721.00;;;;5089926;28;20199;-84
2023/06/22 04:02:26;;;;;;;6.75;5.00;;;;;23.90;101721.00;;;;5089930;28;20205;-84
2023/06/22 04:04:54;;;;;;;6.63;4.72;;;;;23.90;101721.00;;;;5088823;28;20198;-84
2023/06/22 04:07:21;;;;;;;6.47;4.68;;;;;23.90;101714.00;;;;5089638;28;20202;-83
2023/06/22 04:09:48;;;;;;;9.23;3.78;;;;;23.90;101715.00;;;;5089156;28;20190;-84
2023/06/22 04:12:17;;;;;;;6.65;5.50;;;;;23.90;101710.00;;;;5089681;28;20215;-83
2023/06/22 04:14:44;;;;;;;5.15;4.47;;;;;23.90;101719.00;;;;5074212;28;20214;-83
2023/06/22 04:17:14;;;;;;;7.53;4.95;;;;;23.90;101713.00;;;;5088008;28;20206;-83
2023/06/22 04:19:41;;;;;;;5.43;4.30;;;;;23.90;101719.00;;;;5090348;28;20196;-84
2023/06/22 04:22:09;;;;;;;6.35;4.78;;;;;23.90;101714.00;;;;5089818;28;20226;-83
2023/06/22 04:24:37;;;;;;;5.20;4.45;;;;;23.90;101712.00;;;;5088586;28;20198;-83
2023/06/22 04:27:05;;;;;;;7.25;5.05;;;;;24.00;101706.00;;;;5089080;28;20198;-84
2023/06/22 04:29:32;;;;;;;5.22;4.72;;;;;24.00;101706.00;;;;5088736;28;20199;-84
2023/06/22 04:32:05;;;;;;;5.43;4.78;;;;;24.00;101707.00;;;;5077374;28;20223;-83
2023/06/22 04:34:34;;;;;;;6.47;5.03;;;;;24.00;101698.00;;;;5087976;28;20198;-84
2023/06/22 04:37:01;;;;;;;6.00;5.40;;;;;24.00;101702.00;;;;5087270;28;20205;-84
2023/06/22 04:39:29;;;;;;;6.05;5.07;;;;;24.10;101713.00;;;;5087684;28;20646;-84
2023/06/22 04:42:00;;;;;;;7.07;5.63;;;;;24.10;101703.00;;;;5088611;28;20222;-84
2023/06/22 04:44:27;;;;;;;7.47;5.50;;;;;24.10;101709.00;;;;5088858;28;20202;-84
2023/06/22 04:46:59;;;;;;;8.93;5.50;;;;;24.10;101703.00;;;;5087332;28;20273;-83
2023/06/22 04:49:32;;;;;;;7.05;5.63;;;;;24.20;101711.00;;;;5087249;28;20194;-83
2023/06/22 04:52:02;;;;;;;6.47;5.28;;;;;24.20;101706.00;;;;5089302;28;20690;-84
2023/06/22 04:54:29;;;;;;;7.43;5.60;;;;;24.30;101710.00;;;;5088704;28;20299;-84
2023/06/22 04:56:57;;;;;;;6.75;5.95;;;;;24.30;101714.00;;;;5086235;28;20193;-84
2023/06/22 04:59:28;;;;;;;7.80;5.43;;;;;24.30;101723.00;;;;5087722;28;20190;-83
2023/06/22 05:01:55;;;;;;;7.53;5.35;;;;;24.40;101720.00;;;;5087973;28;20226;-83
2023/06/22 05:04:24;;;;;;;7.32;5.80;;;;;24.40;101711.00;;;;5087664;28;20580;-82
2023/06/22 05:06:51;;;;;;;7.35;5.90;;;;;24.40;101712.00;;;;5087016;28;20235;-83
2023/06/22 05:09:20;;;;;;;7.35;5.75;;;;;24.50;101716.00;;;;5087842;28;20194;-82
2023/06/22 05:11:48;;;;;;;9.88;6.68;;;;;24.50;101712.00;;;;5087695;28;20218;-84
2023/06/22 05:14:15;;;;;;;9.02;6.45;;;;;24.60;101713.00;;;;5087527;28;20205;-84
2023/06/22 05:16:45;;;;;;;7.70;6.25;;;;;24.60;101716.00;;;;5083493;28;20209;-85
2023/06/22 05:19:13;;;;;;;8.23;6.40;;;;;24.60;101718.00;;;;5083458;28;20190;-84
2023/06/22 05:21:40;;;;;;;8.10;7.03;;;;;24.70;101718.00;;;;5083594;28;20218;-83
2023/06/22 05:24:08;;;;;;;7.90;6.25;;;;;24.70;101716.00;;;;5087368;28;20218;-84
2023/06/22 05:26:37;;;;;;;10.48;7.10;;;;;24.80;101720.00;;;;5087056;28;20197;-83
2023/06/22 05:29:04;;;;;;;9.10;7.03;;;;;24.90;101723.00;;;;5081672;28;20202;-84
2023/06/22 05:31:31;;;;;;;7.32;6.57;;;;;24.90;101717.00;;;;5085438;28;20198;-83
2023/06/22 05:33:59;;;;;;;9.57;7.90;;;;;25.00;101722.00;;;;5084207;28;20202;-85
2023/06/22 05:36:27;;;;;;;9.35;7.72;;;;;25.10;101716.00;;;;5080409;28;20203;-87
2023/06/22 05:38:54;;;;;;;13.20;7.43;;;;;25.10;101724.00;;;;5083194;28;20883;-85
2023/06/22 05:41:22;;;;;;;9.30;7.47;;;;;25.20;101728.00;;;;5084407;28;20222;-83
2023/06/22 05:43:52;;;;;;;9.65;6.90;;;;;25.20;101728.00;;;;5083011;28;20191;-84
2023/06/22 05:46:20;;;;;;;9.70;8.27;;;;;25.30;101720.00;;;;5081668;28;20194;-83
2023/06/22 05:48:48;;;;;;;12.15;7.95;;;;;25.40;101721.00;;;;5081446;28;20198;-83
2023/06/22 05:51:15;;;;;;;11.18;8.23;;;;;25.50;101716.00;;;;5081834;28;20217;-83
2023/06/22 05:53:49;;;;;;;10.85;8.43;;;;;25.60;101721.00;;;;5085596;28;20198;-83
2023/06/22 05:56:19;;;;;;;11.30;8.57;;;;;25.70;101723.00;;;;5076107;28;20203;-83
2023/06/22 05:58:51;;;;;;;10.07;7.85;;;;;25.70;101724.00;;;;5086040;28;20216;-83
2023/06/22 06:01:18;;;;;;;10.80;8.02;;;;;25.80;101724.00;;;;5078511;28;20222;-84
2023/06/22 06:03:45;;;;;;;10.02;8.32;;;;;25.90;101724.00;;;;5083877;28;20209;-84
2023/06/22 06:06:13;;;;;;;12.77;8.70;;;;;26.00;101725.00;;;;5084099;28;20194;-81
2023/06/22 06:08:40;;;;;;;10.00;8.20;;;;;26.10;101718.00;;;;5082784;28;20220;-80
2023/06/22 06:11:08;;;;;;;11.27;7.90;;;;;26.20;101709.00;;;;5084949;28;20214;-80
2023/06/22 06:13:35;;;;;;;9.65;7.88;;;;;26.30;101723.00;;;;5080189;28;20210;-80
2023/06/22 06:16:04;;;;;;;10.02;7.65;;;;;26.40;101716.00;;;;5067763;28;20203;-80
2023/06/22 06:18:31;;;;;;;10.20;8.35;;;;;26.50;101712.00;;;;5071549;28;20213;-80
2023/06/22 06:20:59;;;;;;;13.63;7.72;;;;;26.50;101700.00;;;;5088592;28;20222;-81
2023/06/22 06:23:26;;;;;;;10.45;8.00;;;;;26.60;101695.00;;;;5090897;28;20190;-81
2023/06/22 06:25:53;;;;;;;12.32;8.23;;;;;26.70;101704.00;;;;5091140;28;20304;-81
2023/06/22 06:28:20;;;;;;;8.95;7.88;;;;;26.80;101706.00;;;;5091746;28;20223;-81
2023/06/22 06:30:48;;;;;;;10.52;8.43;;;;;26.80;101703.00;;;;5081472;28;20194;-82
2023/06/22 06:33:16;;;;;;;9.90;8.38;;;;;26.90;101695.00;;;;5084960;28;21102;-81
2023/06/22 06:35:44;;;;;;;9.23;7.57;;;;;27.00;101700.00;;;;5087839;28;20676;-82
2023/06/22 06:38:11;;;;;;;8.52;7.63;;;;;27.10;101698.00;;;;5091217;28;20206;-81
2023/06/22 06:40:38;;;;;;;12.07;8.93;;;;;27.20;101698.00;;;;5088311;28;21007;-81
2023/06/22 06:43:05;;;;;;;12.25;8.32;;;;;27.30;101697.00;;;;5090438;28;20686;-82
2023/06/22 06:45:34;;;;;;;10.43;8.18;;;;;27.30;101687.00;;;;5088722;28;20209;-84
2023/06/22 06:48:01;;;;;;;14.20;8.30;;;;;27.40;101694.00;;;;5084902;28;20196;-81
2023/06/22 06:50:30;;;;;;;8.60;7.65;;;;;27.50;101693.00;;;;5087397;28;20199;-81
2023/06/22 06:52:58;;;;;;;13.50;9.00;;;;;27.60;101694.00;;;;5087224;28;20206;-82
2023/06/22 06:55:26;;;;;;;9.98;8.05;;;;;27.60;101698.00;;;;5090970;28;20613;-81
2023/06/22 06:57:53;;;;;;;12.25;8.50;;;;;27.70;101694.00;;;;5088925;28;20195;-82
2023/06/22 07:00:21;;;;;;;9.43;7.53;;;;;27.70;101684.00;;;;5091306;28;20190;-82
2023/06/22 07:02:49;;;;;;;10.70;8.65;;;;;27.80;101689.00;;;;5089125;28;20225;-81
2023/06/22 07:05:16;;;;;;;10.25;8.10;;;;;27.90;101686.00;;;;5078904;28;20922;-82
2023/06/22 07:07:46;;;;;;;9.40;8.43;;;;;27.90;101694.00;;;;5086838;28;20198;-81
2023/06/22 07:10:15;;;;;;;9.13;7.90;;;;;28.00;101691.00;;;;5088760;28;20202;-84
2023/06/22 07:12:42;;;;;;;9.32;8.32;;;;;28.00;101694.00;;;;5083541;28;20223;-85
2023/06/22 07:15:12;;;;;;;9.95;8.45;;;;;28.10;101688.00;;;;5079171;28;20683;-86
2023/06/22 07:17:40;;;;;;;9.00;7.90;;;;;28.20;101687.00;;;;5089911;28;20198;-81
2023/06/22 07:20:10;;;;;;;15.80;9.40;;;;;28.20;101687.00;;;;5081668;28;20191;-82
2023/06/22 07:22:37;;;;;;;9.77;8.77;;;;;28.30;101688.00;;;;5080787;28;20222;-83
2023/06/22 07:25:09;;;;;;;9.32;8.15;;;;;28.30;101689.00;;;;5084777;28;20198;-81
2023/06/22 07:27:39;;;;;;;10.05;7.90;;;;;28.50;101684.00;;;;5081239;28;20194;-81
2023/06/22 07:30:08;;;;;;;10.07;7.43;;;;;28.50;101687.00;;;;5083841;28;20210;-81
2023/06/22 07:32:35;;;;;;;10.00;8.00;;;;;28.60;101680.00;;;;5076312;28;20241;-80
2023/06/22 07:35:03;;;;;;;10.43;8.05;;;;;28.60;101678.00;;;;5082782;28;20225;-81
2023/06/22 07:37:33;;;;;;;10.32;7.80;;;;;28.70;101672.00;;;;5076541;28;20199;-81
2023/06/22 07:40:00;;;;;;;7.07;6.32;;;;;28.80;101670.00;;;;5078300;28;20610;-81
2023/06/22 07:42:32;;;;;;;8.00;6.47;;;;;28.90;101666.00;;;;5079758;28;20226;-81
2023/06/22 07:45:00;;;;;;;9.77;7.72;;;;;29.00;101666.00;;;;5087219;28;20190;-81
2023/06/22 07:47:28;;;;;;;9.30;7.07;;;;;29.00;101664.00;;;;5089856;28;20198;-81
2023/06/22 07:49:57;;;;;;;8.55;6.72;;;;;29.00;101664.00;;;;5083943;28;20683;-81
2023/06/22 07:52:25;;;;;;;9.57;8.18;;;;;29.10;101664.00;;;;5074266;28;20201;-81
2023/06/22 07:54:53;;;;;;;9.20;7.70;;;;;29.20;101669.00;;;;5076293;28;20209;-82
2023/06/22 07:57:20;;;;;;;13.13;6.95;;;;;29.20;101663.00;;;;5082658;28;20198;-80
2023/06/22 07:59:49;;;;;;;7.05;6.35;;;;;29.30;101660.00;;;;5089081;28;20571;-82
2023/06/22 08:02:16;;;;;;;8.15;7.07;;;;;29.30;101657.00;;;;5088912;28;20222;-81
2023/06/22 08:04:44;;;;;;;7.68;6.88;;;;;29.40;101660.00;;;;5084186;28;20206;-80
2023/06/22 08:07:12;;;;;;;8.77;7.65;;;;;29.40;101661.00;;;;5080818;28;20190;-82
2023/06/22 08:09:39;;;;;;;7.50;6.55;;;;;29.50;101648.00;;;;5089124;28;20194;-81
2023/06/22 08:12:07;;;;;;;8.70;6.72;;;;;29.60;101641.00;;;;5084852;28;20229;-81
2023/06/22 08:14:36;;;;;;;7.20;6.15;;;;;29.70;101638.00;;;;5084459;28;20210;-81
2023/06/22 08:17:05;;;;;;;8.50;6.47;;;;;29.80;101638.00;;;;5086175;28;20282;-81
2023/06/22 08:19:33;;;;;;;8.98;6.38;;;;;29.90;101631.00;;;;5087818;28;20194;-83
2023/06/22 08:22:00;;;;;;;7.78;6.97;;;;;30.00;101628.00;;;;5085094;28;20218;-80
2023/06/22 08:24:30;;;;;;;7.10;6.40;;;;;30.00;101619.00;;;;5081607;28;20205;-81
2023/06/22 08:26:57;;;;;;;9.10;6.80;;;;;30.10;101617.00;;;;5077444;28;20198;-81
2023/06/22 08:29:25;;;;;;;9.02;6.70;;;;;30.20;101604.00;;;;5086066;28;20198;-81
2023/06/22 08:31:52;;;;;;;14.45;6.60;;;;;30.20;101607.00;;;;5087152;28;20218;-81
2023/06/22 08:34:25;;;;;;;6.80;6.10;;;;;30.30;101606.00;;;;5087816;28;20226;-81
2023/06/22 08:36:52;;;;;;;7.07;5.82;;;;;30.40;101603.00;;;;5088549;28;20197;-82
2023/06/22 08:39:20;;;;;;;9.32;7.43;;;;;30.50;101607.00;;;;5081572;28;20198;-83
2023/06/22 08:41:48;;;;;;;6.50;5.85;;;;;30.60;101604.00;;;;5085427;28;20594;-82
2023/06/22 08:44:18;;;;;;;7.28;6.45;;;;;30.70;101604.00;;;;5084925;28;20198;-82
2023/06/22 08:46:45;;;;;;;7.45;6.15;;;;;30.70;101597.00;;;;5080114;28;20735;-82
2023/06/22 08:49:12;;;;;;;6.68;5.82;;;;;30.80;101608.00;;;;5087527;28;20191;-82
2023/06/22 08:51:41;;;;;;;7.13;5.53;;;;;30.80;101606.00;;;;5088626;28;20221;-82
2023/06/22 08:54:08;;;;;;;7.00;4.82;;;;;30.90;101604.00;;;;5088483;28;20220;-82
2023/06/22 08:56:36;;;;;;;5.85;5.25;;;;;30.90;101606.00;;;;5083125;28;20213;-82
2023/06/22 08:59:03;;;;;;;8.23;5.35;;;;;31.00;101604.00;;;;5082946;28;20214;-83
2023/06/22 09:01:30;;;;;;;5.93;5.13;;;;;31.00;101601.00;;;;5086687;28;20208;-81
2023/06/22 09:03:59;;;;;;;5.00;4.50;;;;;31.00;101597.00;;;;5085978;28;20201;-83
2023/06/22 09:06:27;;;;;;;6.50;5.03;;;;;31.00;101600.00;;;;5087637;28;20198;-83
2023/06/22 09:08:56;;;;;;;5.38;4.80;;;;;31.00;101594.00;;;;5086787;28;20202;-82
2023/06/22 09:11:23;;;;;;;4.05;3.60;;;;;31.00;101601.00;;;;5086352;28;20210;-81
2023/06/22 09:13:51;;;;;;;4.72;3.67;;;;;31.00;101597.00;;;;5087895;28;20194;-82
2023/06/22 09:16:19;;;;;;;5.07;3.72;;;;;31.00;101595.00;;;;5088326;28;20194;-82
2023/06/22 09:18:49;;;;;;;4.00;3.65;;;;;30.90;101600.00;;;;5083758;28;20186;-82
2023/06/22 09:21:16;;;;;;;4.30;3.75;;;;;31.00;101601.00;;;;5080567;28;20182;-82
2023/06/22 09:23:45;;;;;;;4.43;3.67;;;;;31.10;101605.00;;;;5085763;28;20226;-82
2023/06/22 09:26:14;;;;;;;4.97;3.58;;;;;31.10;101602.00;;;;5088086;28;20194;-83
2023/06/22 09:28:41;;;;;;;5.20;3.67;;;;;31.20;101612.00;;;;5087860;28;20210;-82
2023/06/22 09:31:09;;;;;;;4.93;4.00;;;;;31.20;101608.00;;;;5086492;28;20198;-83
2023/06/22 09:33:37;;;;;;;5.25;4.47;;;;;31.20;101604.00;;;;5082880;28;20230;-83
2023/06/22 09:36:07;;;;;;;5.75;4.15;;;;;31.30;101604.00;;;;5086837;28;20198;-83
2023/06/22 09:38:36;;;;;;;6.68;4.05;;;;;31.30;101595.00;;;;5086447;28;20247;-82
2023/06/22 09:41:03;;;;;;;4.93;4.45;;;;;31.30;101595.00;;;;5085771;28;20198;-84
2023/06/22 09:43:34;;;;;;;4.43;3.60;;;;;31.30;101599.00;;;;5085232;28;20237;-83
2023/06/22 09:46:02;;;;;;;4.63;3.70;;;;;31.30;101590.00;;;;5085718;28;20203;-81
2023/06/22 09:48:30;;;;;;;6.60;4.20;;;;;31.30;101596.00;;;;5087399;28;20206;-82
2023/06/22 09:50:58;;;;;;;4.03;3.63;;;;;31.30;101593.00;;;;5085709;28;20262;-82
2023/06/22 09:53:25;;;;;;;4.28;3.45;;;;;31.30;101601.00;;;;5086560;28;20209;-83
2023/06/22 09:55:52;;;;;;;3.85;3.55;;;;;31.30;101586.00;;;;5084140;28;20197;-83
2023/06/22 09:58:20;;;;;;;4.65;3.92;;;;;31.30;101592.00;;;;5090148;28;20271;-83
2023/06/22 10:00:50;;;;;;;3.67;3.30;;;;;31.20;101589.00;;;;5090128;28;20609;-82
2023/06/22 10:03:17;;;;;;;5.82;4.05;;;;;31.20;101590.00;;;;5083681;28;20262;-82
2023/06/22 10:05:44;;;;;;;5.40;2.95;;;;;31.20;101592.00;;;;5090209;28;20193;-83
2023/06/22 10:08:11;;;;;;;3.00;2.75;;;;;31.10;101595.00;;;;5092226;28;20210;-83
2023/06/22 10:10:39;;;;;;;2.90;2.60;;;;;31.10;101586.00;;;;5090274;28;20209;-82
2023/06/22 10:13:10;;;;;;;4.40;3.25;;;;;31.00;101586.00;;;;5081797;28;20234;-83
2023/06/22 10:15:38;;;;;;;4.95;3.85;;;;;31.00;101583.00;;;;5090507;28;20598;-84
2023/06/22 10:18:07;;;;;;;4.05;2.95;;;;;30.90;101589.00;;;;5092078;28;20775;-83
2023/06/22 10:20:34;;;;;;;4.30;3.33;;;;;30.90;101584.00;;;;5088385;28;20202;-83
2023/06/22 10:23:02;;;;;;;3.60;2.78;;;;;30.90;101583.00;;;;5079106;28;20222;-84
2023/06/22 10:25:29;;;;;;;3.17;2.88;;;;;30.80;101579.00;;;;5090348;28;20214;-82
2023/06/22 10:27:57;;;;;;;5.22;3.05;;;;;30.80;101581.00;;;;5083028;28;20201;-83
2023/06/22 10:30:24;;;;;;;2.97;2.58;;;;;30.80;101586.00;;;;5091300;28;20631;-82
2023/06/22 10:32:51;;;;;;;5.53;2.60;;;;;30.80;101578.00;;;;5090729;28;20234;-84
2023/06/22 10:35:20;;;;;;;4.22;2.50;;;;;30.70;101581.00;;;;5086945;28;20191;-83
2023/06/22 10:37:48;;;;;;;3.13;2.85;;;;;30.70;101585.00;;;;5090637;28;20679;-83
2023/06/22 10:40:18;;;;;;;3.75;2.60;;;;;30.70;101587.00;;;;5088532;28;20194;-81
2023/06/22 10:42:46;;;;;;;2.47;2.15;;;;;30.70;101590.00;;;;5089868;28;20711;-82
2023/06/22 10:45:14;;;;;;;2.70;2.50;;;;;30.60;101586.00;;;;5088842;28;20546;-84
2023/06/22 10:47:42;;;;;;;4.28;2.47;;;;;30.60;101589.00;;;;5087597;28;20275;-83
2023/06/22 10:50:09;;;;;;;3.17;2.50;;;;;30.60;101586.00;;;;5086495;28;20222;-83
2023/06/22 10:52:38;;;;;;;3.60;3.13;;;;;30.60;101588.00;;;;5087950;28;20298;-82
2023/06/22 10:55:06;;;;;;;3.42;2.45;;;;;30.60;101586.00;;;;5083906;28;20276;-82
2023/06/22 10:57:34;;;;;;;3.70;2.95;;;;;30.60;101589.00;;;;5089705;28;20771;-83
2023/06/22 11:00:01;;;;;;;3.33;2.53;;;;;30.60;101589.00;;;;5089223;28;20222;-83
2023/06/22 11:02:28;;;;;;;3.28;2.40;;;;;30.60;101588.00;;;;5083665;28;20275;-82
2023/06/22 11:04:56;;;;;;;5.00;2.42;;;;;30.60;101590.00;;;;5081262;28;20214;-82
2023/06/22 11:07:23;;;;;;;3.78;2.55;;;;;30.60;101580.00;;;;5087553;28;20191;-83
2023/06/22 11:09:52;;;;;;;4.13;2.30;;;;;30.60;101579.00;;;;5088559;28;20201;-83
2023/06/22 11:12:22;;;;;;;3.03;2.70;;;;;30.50;101585.00;;;;5088273;28;20222;-83
2023/06/22 11:14:51;;;;;;;3.53;2.60;;;;;30.50;101575.00;;;;5086099;28;20205;-83
2023/06/22 11:17:18;;;;;;;2.97;2.60;;;;;30.50;101578.00;;;;5089604;28;20190;-81
2023/06/22 11:19:46;;;;;;;5.22;2.92;;;;;30.50;101572.00;;;;5085790;28;20194;-82
2023/06/22 11:22:13;;;;;;;3.90;2.95;;;;;30.50;101570.00;;;;5086536;28;20308;-81
2023/06/22 11:24:41;;;;;;;3.80;2.72;;;;;30.50;101571.00;;;;5090002;28;20707;-82
2023/06/22 11:27:10;;;;;;;4.40;2.63;;;;;30.50;101575.00;;;;5090429;28;20198;-81
2023/06/22 11:29:39;;;;;;;3.88;2.60;;;;;30.50;101566.00;;;;5086196;28;20205;-81
2023/06/22 11:32:07;;;;;;;3.13;2.83;;;;;30.50;101561.00;;;;5085235;28;20281;-81
2023/06/22 11:34:35;;;;;;;2.90;2.60;;;;;30.50;101555.00;;;;5089151;28;20202;-82
2023/06/22 11:37:02;;;;;;;12.02;3.05;;;;;30.50;101552.00;;;;5078344;28;20199;-82
2023/06/22 11:39:29;;;;;;;4.63;2.58;;;;;30.60;101555.00;;;;5086698;28;20194;-81
2023/06/22 11:41:57;;;;;;;5.18;2.88;;;;;30.60;101541.00;;;;5084558;28;20198;-81
2023/06/22 11:44:27;;;;;;;3.50;2.97;;;;;30.60;101541.00;;;;5088723;28;20233;-81
2023/06/22 11:46:55;;;;;;;4.35;3.30;;;;;30.60;101545.00;;;;5088875;28;20213;-81
2023/06/22 11:49:22;;;;;;;5.45;3.60;;;;;30.60;101545.00;;;;5088725;28;20547;-82
2023/06/22 11:51:49;;;;;;;4.15;3.17;;;;;30.60;101545.00;;;;5089434;28;20191;-82
2023/06/22 11:54:17;;;;;;;3.72;2.75;;;;;30.60;101544.00;;;;5081347;28;20198;-81
2023/06/22 11:56:44;;;;;;;3.42;2.95;;;;;30.60;101543.00;;;;5085993;28;20201;-81
2023/06/22 11:59:11;;;;;;;4.68;3.22;;;;;30.60;101538.00;;;;5089596;28;20194;-82
2023/06/22 12:01:40;;;;;;;3.03;2.60;;;;;30.60;101544.00;;;;5088087;28;20205;-83
2023/06/22 12:04:10;;;;;;;3.47;3.00;;;;;30.60;101549.00;;;;5087815;28;20226;-81
2023/06/22 12:06:42;;;;;;;3.50;3.20;;;;;30.60;101550.00;;;;5085285;28;20267;-81
2023/06/22 12:09:10;;;;;;;3.63;3.33;;;;;30.60;101544.00;;;;5088661;28;20632;-82
2023/06/22 12:11:37;;;;;;;4.32;3.63;;;;;30.60;101542.00;;;;5087006;28;20703;-81